Time;durP1;ratioP1;P1;durP2;ratioP2;P2;SDS_P1;SDS_P2;PMS_P1;PMS_P2;Temp;Humidity;BMP_temperature;BMP_pressure;BME280_temperature;BME280_humidity;BME280_pressure;Samples;Min_cycle;Max_cycle;Signal;HPM_P1;HPM_P2
2023/07/05 00:00:57;;;;;;;9.35;8.35;;;;;;;21.31;100.00;64207.59;5004568;28;20270;-81
2023/07/05 00:03:24;;;;;;;9.55;8.63;;;;;;;21.30;100.00;64209.66;5011458;28;20211;-81
2023/07/05 00:05:52;;;;;;;8.85;7.97;;;;;;;21.24;100.00;64198.22;5009406;28;20275;-81
2023/07/05 00:08:22;;;;;;;9.65;8.32;;;;;;;21.18;100.00;64194.00;5014197;28;20211;-81
2023/07/05 00:10:49;;;;;;;9.23;8.32;;;;;;;21.06;100.00;64187.19;5006864;28;20210;-81
2023/07/05 00:13:19;;;;;;;8.68;7.88;;;;;;;21.10;100.00;64186.19;4995549;28;20603;-81
2023/07/05 00:15:48;;;;;;;9.98;8.73;;;;;;;21.10;100.00;64186.19;4994689;28;20235;-82
2023/07/05 00:18:16;;;;;;;9.68;8.65;;;;;;;21.06;100.00;64179.41;5012248;28;20250;-84
2023/07/05 00:20:45;;;;;;;9.43;8.43;;;;;;;21.06;100.00;64181.47;5008245;28;20234;-82
2023/07/05 00:23:12;;;;;;;14.38;8.55;;;;;;;21.05;100.00;64185.63;5030087;28;20204;-81
2023/07/05 00:25:41;;;;;;;10.25;9.07;;;;;;;21.05;100.00;64178.38;5011725;28;20219;-81
2023/07/05 00:28:08;;;;;;;10.40;9.23;;;;;;;21.10;100.00;64186.19;5008578;28;20218;-81
2023/07/05 00:30:35;;;;;;;10.63;9.52;;;;;;;21.09;100.00;64184.63;5007093;28;20531;-80
2023/07/05 00:33:02;;;;;;;9.82;9.02;;;;;;;21.15;100.00;64191.41;5007777;28;20206;-80
2023/07/05 00:35:30;;;;;;;10.77;9.15;;;;;;;21.21;100.00;64194.56;5010884;28;20222;-80
2023/07/05 00:37:57;;;;;;;10.18;9.00;;;;;;;21.29;100.00;64200.31;5012172;28;20238;-81
2023/07/05 00:40:24;;;;;;;8.93;8.02;;;;;;;21.27;100.00;64200.81;5007724;28;20230;-82
2023/07/05 00:42:52;;;;;;;9.05;8.18;;;;;;;21.37;100.00;64216.97;5008407;28;20230;-81
2023/07/05 00:45:49;;;;;;;10.35;9.13;;;;;;;21.37;100.00;64214.38;5024334;28;20213;-82
2023/07/05 00:48:18;;;;;;;10.07;9.07;;;;;;;21.37;100.00;64213.84;5005674;28;20274;-81
2023/07/05 00:50:49;;;;;;;10.13;8.82;;;;;;;21.42;98.70;64217.00;5006061;28;20277;-79
2023/07/05 00:53:16;;;;;;;9.65;8.25;;;;;;;21.45;99.05;64219.63;5008394;28;20195;-79
2023/07/05 00:55:48;;;;;;;10.75;8.68;;;;;;;21.29;100.00;64205.50;5014149;28;20218;-79
2023/07/05 00:58:21;;;;;;;10.32;9.27;;;;;;;21.02;100.00;64175.22;5007832;28;20293;-81
2023/07/05 01:00:50;;;;;;;12.82;9.27;;;;;;;20.99;100.00;64171.56;4995680;28;20231;-81
2023/07/05 01:03:21;;;;;;;9.48;8.57;;;;;;;20.96;100.00;64171.53;4997912;28;20214;-82
2023/07/05 01:05:52;;;;;;;12.40;10.55;;;;;;;20.93;100.00;64168.41;5006402;28;20417;-80
2023/07/05 01:08:19;;;;;;;11.05;9.98;;;;;;;20.85;100.00;64162.09;5012747;28;20377;-82
2023/07/05 01:10:52;;;;;;;11.98;10.77;;;;;;;20.76;100.00;64150.13;5013811;28;20227;-82
2023/07/05 01:13:25;;;;;;;13.38;10.52;;;;;;;20.78;100.00;64154.81;5003550;28;20203;-81
2023/07/05 01:16:01;;;;;;;11.52;10.02;;;;;;;20.81;100.00;64152.78;5011429;28;20410;-81
2023/07/05 01:18:37;;;;;;;13.95;10.98;;;;;;;20.81;100.00;64155.88;5012463;28;20218;-81
2023/07/05 01:21:10;;;;;;;12.38;11.18;;;;;;;20.80;100.00;64154.31;4994978;28;20265;-82
2023/07/05 01:24:07;;;;;;;14.70;12.05;;;;;;;20.84;100.00;64155.91;4991662;28;20207;-81
2023/07/05 01:27:23;;;;;;;13.30;10.73;;;;;;;20.73;100.00;64147.53;4989878;28;20309;-79
2023/07/05 01:30:41;;;;;;;12.95;11.57;;;;;;;20.83;100.00;64155.38;4932932;29;20198;-81
2023/07/05 01:33:13;;;;;;;11.55;10.32;;;;;;;20.85;100.00;64160.03;4925712;29;20205;-80
2023/07/05 01:35:47;;;;;;;12.70;11.30;;;;;;;20.84;100.00;64159.00;4987976;28;20215;-80
2023/07/05 01:38:14;;;;;;;11.48;10.27;;;;;;;20.76;100.00;64150.66;4993246;28;20211;-80
2023/07/05 01:41:01;;;;;;;11.55;10.40;;;;;;;20.47;100.00;64120.38;4992800;28;20301;-81
2023/07/05 01:43:31;;;;;;;10.20;9.20;;;;;;;20.51;100.00;64122.50;4989952;28;20226;-80
2023/07/05 01:46:11;;;;;;;12.15;10.88;;;;;;;20.55;100.00;64126.66;5004638;28;20259;-81
2023/07/05 01:48:53;;;;;;;11.00;9.93;;;;;;;20.49;100.00;64125.06;4993604;28;20203;-79
2023/07/05 01:51:27;;;;;;;11.52;10.32;;;;;;;20.39;100.00;64109.97;4987644;28;20241;-80
2023/07/05 01:54:01;;;;;;;13.15;10.68;;;;;;;20.33;100.00;64103.69;4993127;28;20427;-81
2023/07/05 01:56:35;;;;;;;12.60;10.13;;;;;;;20.32;100.00;64104.72;4987555;28;20476;-81
2023/07/05 01:59:05;;;;;;;10.65;9.57;;;;;;;20.28;100.00;64095.38;4992347;28;20203;-80
2023/07/05 02:01:35;;;;;;;11.77;10.57;;;;;;;20.16;100.00;64088.03;4992991;28;20258;-80
2023/07/05 02:04:07;;;;;;;13.27;9.65;;;;;;;20.19;100.00;64089.09;4990562;28;20215;-81
2023/07/05 02:06:36;;;;;;;15.07;10.50;;;;;;;20.13;100.00;64087.47;4989220;28;20381;-80
2023/07/05 02:09:04;;;;;;;12.52;11.13;;;;;;;20.17;100.00;64089.06;4989965;28;20210;-80
2023/07/05 02:11:31;;;;;;;12.65;10.57;;;;;;;20.15;100.00;64079.22;4991796;28;20286;-81
2023/07/05 02:13:58;;;;;;;12.27;10.98;;;;;;;20.18;100.00;64088.06;4991294;28;20292;-81
2023/07/05 02:16:25;;;;;;;12.50;11.05;;;;;;;20.21;100.00;64090.66;4992804;28;20403;-80
2023/07/05 02:18:53;;;;;;;12.63;11.32;;;;;;;20.19;100.00;64091.16;4988756;28;20207;-81
2023/07/05 02:21:21;;;;;;;12.10;10.93;;;;;;;20.18;100.00;64092.69;4999769;28;20250;-80
2023/07/05 02:23:48;;;;;;;12.45;11.20;;;;;;;20.15;100.00;64087.50;5008566;28;20205;-82
2023/07/05 02:26:15;;;;;;;12.95;11.57;;;;;;;20.14;100.00;64085.94;5012624;28;20222;-80
2023/07/05 02:28:43;;;;;;;13.65;12.15;;;;;;;20.13;100.00;64082.81;5020795;28;20206;-80
2023/07/05 02:31:11;;;;;;;16.13;11.35;;;;;;;20.12;100.00;64084.34;5021067;28;20246;-80
2023/07/05 02:33:39;;;;;;;12.18;10.98;;;;;;;20.09;100.00;64083.81;5015762;28;20321;-80
2023/07/05 02:36:10;;;;;;;12.88;11.38;;;;;;;20.05;100.00;64069.28;5007255;28;20217;-81
2023/07/05 02:38:40;;;;;;;14.68;12.23;;;;;;;19.96;100.00;64064.56;5009565;28;20231;-81
2023/07/05 02:41:07;;;;;;;11.60;10.50;;;;;;;19.92;100.00;64062.97;5010003;28;20231;-81
2023/07/05 02:43:34;;;;;;;13.77;12.00;;;;;;;19.86;100.00;64057.22;5003605;28;20234;-81
2023/07/05 02:46:01;;;;;;;13.07;11.20;;;;;;;19.82;100.00;64058.22;5009273;28;20229;-81
2023/07/05 02:48:28;;;;;;;12.27;10.93;;;;;;;19.80;100.00;64047.84;5011344;28;20515;-80
2023/07/05 02:50:56;;;;;;;13.15;11.82;;;;;;;19.75;100.00;64045.75;5002859;28;20283;-81
2023/07/05 02:53:23;;;;;;;14.57;11.95;;;;;;;19.69;100.00;64031.72;5021066;28;20201;-81
2023/07/05 02:55:52;;;;;;;13.30;11.95;;;;;;;19.70;100.00;64040.00;5001125;28;20227;-80
2023/07/05 02:58:19;;;;;;;13.13;11.75;;;;;;;19.67;100.00;64034.31;4997142;28;20210;-81
2023/07/05 03:00:46;;;;;;;12.05;10.75;;;;;;;19.66;100.00;64036.34;5011457;28;20241;-81
2023/07/05 03:03:13;;;;;;;13.45;11.57;;;;;;;19.59;100.00;64029.06;5010114;28;20207;-81
2023/07/05 03:05:40;;;;;;;11.90;10.73;;;;;;;19.50;100.00;64022.78;4998013;28;20631;-82
2023/07/05 03:08:07;;;;;;;12.15;10.82;;;;;;;19.59;100.00;64028.56;5002966;28;20207;-81
2023/07/05 03:10:38;;;;;;;12.20;11.00;;;;;;;19.46;100.00;64018.63;5024298;28;20230;-81
2023/07/05 03:13:06;;;;;;;14.25;11.75;;;;;;;19.50;100.00;64019.66;5026782;28;20201;-81
2023/07/05 03:15:33;;;;;;;15.38;10.43;;;;;;;19.59;100.00;64029.06;5004552;28;20243;-81
2023/07/05 03:18:00;;;;;;;12.68;10.77;;;;;;;19.59;100.00;64029.06;5006266;28;20206;-81
2023/07/05 03:20:28;;;;;;;13.75;10.20;;;;;;;19.62;100.00;64029.63;5014876;28;20238;-81
2023/07/05 03:22:55;;;;;;;12.00;10.30;;;;;;;19.61;100.00;64031.16;5009905;28;20194;-80
2023/07/05 03:25:22;;;;;;;12.27;11.05;;;;;;;19.59;100.00;64029.06;4997042;28;20222;-82
2023/07/05 03:27:49;;;;;;;12.23;10.18;;;;;;;19.72;100.00;64040.03;5023230;28;20206;-81
2023/07/05 03:30:18;;;;;;;13.27;11.07;;;;;;;19.86;100.00;64056.72;5011604;28;20214;-80
2023/07/05 03:32:45;;;;;;;12.07;10.15;;;;;;;19.96;100.00;64067.13;5013859;28;20207;-81
2023/07/05 03:35:13;;;;;;;12.75;11.48;;;;;;;20.07;100.00;64083.78;5019889;28;20420;-81
2023/07/05 03:37:41;;;;;;;12.93;10.23;;;;;;;20.18;100.00;64088.06;5024432;28;20205;-81
2023/07/05 03:40:09;;;;;;;11.27;9.82;;;;;;;20.37;100.00;64110.47;5017518;28;20202;-81
2023/07/05 03:42:37;;;;;;;12.90;10.55;;;;;;;20.42;100.00;64115.69;5004937;28;20205;-80
2023/07/05 03:45:05;;;;;;;11.18;10.07;;;;;;;20.74;100.00;64153.75;5013321;28;20229;-81
2023/07/05 03:47:33;;;;;;;11.23;10.13;;;;;;;20.94;100.00;64168.91;5030349;28;20238;-81
2023/07/05 03:50:00;;;;;;;10.32;9.32;;;;;;;21.10;100.00;64186.19;5021509;28;20532;-81
2023/07/05 03:52:28;;;;;;;10.25;9.38;;;;;;;21.31;100.00;64210.19;5007766;28;20246;-82
2023/07/05 03:54:54;;;;;;;11.20;10.02;;;;;;;21.45;100.00;64220.13;5009118;28;20217;-80
2023/07/05 03:57:21;;;;;;;10.88;9.88;;;;;;;21.74;100.00;64253.03;5002892;28;20243;-81
2023/07/05 03:59:48;;;;;;;11.30;9.98;;;;;;;21.82;100.00;64260.88;5011256;28;20250;-83
2023/07/05 04:02:15;;;;;;;11.57;10.43;;;;;;;22.01;100.00;64280.75;5013556;28;20313;-81
2023/07/05 04:04:44;;;;;;;10.73;9.63;;;;;;;22.10;100.00;64287.03;5007455;28;20191;-81
2023/07/05 04:07:11;;;;;;;10.95;9.85;;;;;;;22.20;100.00;64300.59;5007773;28;20222;-81
2023/07/05 04:09:39;;;;;;;12.05;10.55;;;;;;;22.17;100.00;64296.94;5011141;28;20203;-82
2023/07/05 04:12:08;;;;;;;11.05;10.00;;;;;;;22.15;100.00;64294.84;5014603;28;20215;-80
2023/07/05 04:14:34;;;;;;;12.23;10.95;;;;;;;22.08;100.00;64284.94;4997019;28;20233;-81
2023/07/05 04:17:01;;;;;;;12.82;11.52;;;;;;;21.97;100.00;64279.16;5018971;28;20221;-79
2023/07/05 04:19:28;;;;;;;13.85;12.45;;;;;;;21.75;100.00;64256.16;5013430;28;20221;-81
2023/07/05 04:21:57;;;;;;;13.57;11.82;;;;;;;21.68;100.00;64248.81;5019498;28;20492;-81
2023/07/05 04:24:24;;;;;;;13.85;12.00;;;;;;;21.61;100.00;64239.44;5009892;28;20233;-80
2023/07/05 04:26:51;;;;;;;16.35;11.95;;;;;;;21.55;100.00;64233.16;4996523;28;20286;-79
2023/07/05 04:29:17;;;;;;;14.48;12.82;;;;;;;21.50;100.00;64227.94;5007118;28;20218;-79
2023/07/05 04:31:44;;;;;;;14.30;12.18;;;;;;;21.45;100.00;64222.22;5027567;28;20554;-78
2023/07/05 04:34:11;;;;;;;16.75;13.68;;;;;;;20.97;100.00;64172.56;5010903;28;20203;-78
2023/07/05 04:36:38;;;;;;;14.98;13.40;;;;;;;20.69;100.00;64138.69;5004458;28;20219;-80
2023/07/05 04:39:06;;;;;;;15.77;14.02;;;;;;;20.72;100.00;64148.53;5007522;28;20202;-79
2023/07/05 04:41:33;;;;;;;16.55;14.50;;;;;;;20.76;100.00;64150.66;5017570;28;20296;-80
2023/07/05 04:44:00;;;;;;;19.73;14.30;;;;;;;21.03;100.00;64176.28;5000691;28;20229;-81
2023/07/05 04:46:27;;;;;;;18.42;14.43;;;;;;;21.08;100.00;64181.50;5012444;28;20244;-80
2023/07/05 04:48:54;;;;;;;20.73;14.43;;;;;;;21.27;100.00;64201.34;5012407;28;20191;-80
2023/07/05 04:51:21;;;;;;;15.98;14.27;;;;;;;21.31;100.00;64210.69;5005606;28;20245;-80
2023/07/05 04:53:48;;;;;;;16.70;14.18;;;;;;;21.56;100.00;64234.22;5003413;28;20520;-79
2023/07/05 04:56:17;;;;;;;15.95;13.45;;;;;;;21.70;100.00;64248.31;5007938;28;20285;-81
2023/07/05 04:58:44;;;;;;;18.50;12.85;;;;;;;21.92;100.00;64268.75;5015718;28;20518;-81
2023/07/05 05:01:13;;;;;;;15.27;13.57;;;;;;;21.89;100.00;64267.69;5008360;28;20234;-79
2023/07/05 05:03:40;;;;;;;18.23;13.43;;;;;;;21.82;100.00;64263.47;5010688;28;20226;-79
2023/07/05 05:06:08;;;;;;;18.17;13.73;;;;;;;21.95;100.00;64271.88;5021461;28;20238;-80
2023/07/05 05:08:35;;;;;;;16.55;13.48;;;;;;;22.07;100.00;64287.00;5017944;28;20202;-79
2023/07/05 05:11:05;;;;;;;15.07;13.23;;;;;;;22.05;100.00;64284.41;5010438;28;20222;-81
2023/07/05 05:13:35;;;;;;;19.05;14.32;;;;;;;22.07;100.00;64289.59;5024499;28;20208;-80
2023/07/05 05:16:02;;;;;;;20.60;14.18;;;;;;;22.30;100.00;64311.06;5031717;28;20218;-81
2023/07/05 05:18:32;;;;;;;16.88;13.73;;;;;;;22.46;100.00;64325.19;5016942;28;20207;-79
2023/07/05 05:21:00;;;;;;;15.52;13.65;;;;;;;22.66;100.00;64345.59;5011385;28;20234;-80
2023/07/05 05:23:29;;;;;;;18.58;12.77;;;;;;;22.62;100.00;64344.00;5012056;28;20234;-78
2023/07/05 05:25:56;;;;;;;18.52;13.65;;;;;;;22.67;100.00;64347.16;5017655;28;20214;-80
2023/07/05 05:28:23;;;;;;;15.52;13.35;;;;;;;22.62;100.00;64347.13;5006686;28;20245;-78
2023/07/05 05:30:52;;;;;;;19.15;14.25;;;;;;;22.48;100.00;64332.47;5015518;28;20231;-78
2023/07/05 05:33:20;;;;;;;17.45;13.07;;;;;;;22.52;100.00;64333.53;5025926;28;20506;-81
2023/07/05 05:35:48;;;;;;;15.73;13.88;;;;;;;22.39;100.00;64319.94;5001215;28;20255;-80
2023/07/05 05:38:18;;;;;;;19.05;13.10;;;;;;;22.56;100.00;64335.13;5019348;28;20198;-81
2023/07/05 05:40:45;;;;;;;15.73;14.00;;;;;;;22.68;100.00;64347.69;5012387;28;20413;-81
2023/07/05 05:43:12;;;;;;;18.40;14.00;;;;;;;22.77;100.00;64355.03;5011028;28;20538;-80
2023/07/05 05:45:39;;;;;;;18.10;14.63;;;;;;;22.75;100.00;64357.59;5010766;28;20261;-80
2023/07/05 05:48:08;;;;;;;21.73;14.20;;;;;;;22.71;100.00;64356.53;5011876;28;20210;-79
2023/07/05 05:50:38;;;;;;;21.48;14.65;;;;;;;22.71;100.00;64348.75;5008564;28;20292;-80
2023/07/05 05:53:05;;;;;;;17.70;13.73;;;;;;;22.65;100.00;64347.66;5005850;28;20203;-82
2023/07/05 05:55:32;;;;;;;16.67;14.35;;;;;;;22.69;100.00;64354.44;5007629;28;20222;-79
2023/07/05 05:57:59;;;;;;;18.23;13.93;;;;;;;22.65;100.00;64344.53;5013898;28;20210;-77
2023/07/05 06:00:26;;;;;;;20.08;14.15;;;;;;;22.86;100.00;64364.44;5022672;28;20209;-79
2023/07/05 06:02:53;;;;;;;21.65;13.15;;;;;;;23.02;100.00;64378.03;5013198;28;20235;-80
2023/07/05 06:05:21;;;;;;;22.48;15.48;;;;;;;23.29;100.00;64421.91;5013094;28;20206;-79
2023/07/05 06:07:48;;;;;;;17.33;14.13;;;;;;;23.42;100.00;64427.69;4997990;28;20269;-79
2023/07/05 06:10:16;;;;;;;20.42;13.65;;;;;;;23.62;100.00;64446.03;4997040;28;20559;-81
2023/07/05 06:12:43;;;;;;;14.73;12.95;;;;;;;23.90;100.00;64470.09;4992889;28;20263;-80
2023/07/05 06:15:12;;;;;;;17.20;13.60;;;;;;;23.96;100.00;64484.22;5019674;28;20210;-80
2023/07/05 06:17:39;;;;;;;14.00;12.50;;;;;;;23.92;100.00;64476.88;5029936;28;20213;-80
2023/07/05 06:20:10;;;;;;;17.20;13.27;;;;;;;24.04;100.00;64491.56;5020202;28;20235;-79
2023/07/05 06:22:39;;;;;;;18.27;13.07;;;;;;;23.96;100.00;64481.06;4993729;28;20273;-81
2023/07/05 06:25:07;;;;;;;14.50;12.93;;;;;;;24.07;100.00;64495.22;5005049;28;20221;-81
2023/07/05 06:27:35;;;;;;;17.50;13.38;;;;;;;24.37;100.00;64526.63;5028769;28;20222;-81
2023/07/05 06:30:02;;;;;;;16.25;12.57;;;;;;;24.63;100.00;64553.84;4999699;28;20222;-79
2023/07/05 06:32:29;;;;;;;16.63;12.38;;;;;;;24.56;100.00;64545.97;5011368;28;20238;-80
2023/07/05 06:34:57;;;;;;;14.52;11.80;;;;;;;24.60;99.91;64550.16;5016746;28;20214;-80
2023/07/05 06:37:23;;;;;;;12.73;11.35;;;;;;;24.56;100.00;64545.97;5012301;28;20231;-80
2023/07/05 06:39:52;;;;;;;13.23;11.88;;;;;;;24.81;97.76;64569.59;5024085;28;20222;-78
2023/07/05 06:42:19;;;;;;;12.23;11.02;;;;;;;24.94;97.16;64585.78;5023753;28;20234;-78
2023/07/05 06:44:46;;;;;;;12.90;11.00;;;;;;;25.08;97.78;64601.00;5029705;28;20252;-79
2023/07/05 06:47:13;;;;;;;12.60;10.60;;;;;;;25.13;96.53;64608.84;5031056;28;20226;-78
2023/07/05 06:49:40;;;;;;;15.68;11.95;;;;;;;25.15;98.21;64607.78;5030409;28;20241;-79
2023/07/05 06:52:08;;;;;;;14.27;12.63;;;;;;;25.27;96.13;64620.38;5028348;28;20222;-79
2023/07/05 06:54:35;;;;;;;13.02;11.63;;;;;;;25.25;95.42;64620.88;5014378;28;20436;-78
2023/07/05 06:57:05;;;;;;;13.70;11.73;;;;;;;25.30;95.20;64623.50;5009043;28;20219;-78
2023/07/05 06:59:33;;;;;;;18.02;14.70;;;;;;;25.41;95.07;64631.91;5000253;28;20219;-78
2023/07/05 07:02:01;;;;;;;17.77;14.52;;;;;;;25.36;94.05;64629.81;5011783;28;20289;-77
2023/07/05 07:04:29;;;;;;;23.55;14.30;;;;;;;25.42;97.58;64630.38;5009371;28;20281;-77
2023/07/05 07:06:55;;;;;;;19.50;13.48;;;;;;;25.57;98.70;64649.22;5009380;28;20452;-79
2023/07/05 07:09:22;;;;;;;15.15;11.55;;;;;;;25.83;95.13;64681.16;5002794;28;20282;-79
2023/07/05 07:11:49;;;;;;;15.95;11.98;;;;;;;26.08;90.73;64702.69;5022685;28;20252;-79
2023/07/05 07:14:18;;;;;;;17.83;13.35;;;;;;;26.18;91.85;64717.84;5028359;28;20206;-79
2023/07/05 07:16:44;;;;;;;13.00;11.73;;;;;;;26.35;88.89;64733.09;5023687;28;20638;-77
2023/07/05 07:19:12;;;;;;;15.07;10.63;;;;;;;26.32;89.88;64729.41;5010476;28;20206;-80
2023/07/05 07:21:39;;;;;;;12.85;11.07;;;;;;;26.46;87.52;64749.31;5012097;28;20246;-80
2023/07/05 07:24:06;;;;;;;13.95;11.45;;;;;;;26.67;86.84;64766.13;5009558;28;20206;-79
2023/07/05 07:26:33;;;;;;;11.88;10.68;;;;;;;26.90;84.99;64790.25;4999709;28;20238;-78
2023/07/05 07:29:00;;;;;;;11.00;10.02;;;;;;;27.11;82.35;64818.03;5010737;28;20209;-80
2023/07/05 07:31:32;;;;;;;15.95;10.30;;;;;;;27.10;81.16;64811.75;5017964;28;20536;-79
2023/07/05 07:34:02;;;;;;;11.48;10.48;;;;;;;26.70;79.25;64769.28;5010753;28;20210;-77
2023/07/05 07:36:31;;;;;;;10.85;9.95;;;;;;;26.74;85.74;64771.38;5008156;28;20289;-79
2023/07/05 07:38:59;;;;;;;11.32;10.20;;;;;;;26.79;81.86;64781.31;5009744;28;20376;-78
2023/07/05 07:41:27;;;;;;;21.25;10.27;;;;;;;26.86;82.06;64786.59;5009265;28;20302;-78
2023/07/05 07:44:00;;;;;;;11.68;10.68;;;;;;;26.98;83.04;64799.16;5009244;28;20207;-81
2023/07/05 07:46:31;;;;;;;11.75;9.88;;;;;;;26.83;78.91;64783.44;5008317;28;20250;-78
2023/07/05 07:49:00;;;;;;;11.40;10.20;;;;;;;26.89;81.73;64789.72;5009272;28;20202;-78
2023/07/05 07:51:29;;;;;;;11.82;10.73;;;;;;;26.96;79.75;64797.06;5018200;28;20264;-78
2023/07/05 07:53:56;;;;;;;12.23;10.52;;;;;;;27.02;82.99;64806.00;5027922;28;20240;-80
2023/07/05 07:56:25;;;;;;;10.95;9.82;;;;;;;27.30;78.78;64827.53;5015995;28;20533;-80
2023/07/05 07:58:53;;;;;;;10.68;9.68;;;;;;;27.53;76.78;64853.22;5023456;28;20411;-78
2023/07/05 08:01:25;;;;;;;10.75;9.75;;;;;;;27.66;73.56;64869.50;5027804;28;20232;-80
2023/07/05 08:03:55;;;;;;;10.80;9.70;;;;;;;27.68;66.94;64866.34;5010994;28;20271;-77
2023/07/05 08:06:29;;;;;;;12.70;11.07;;;;;;;27.70;72.38;64874.22;5007928;28;20254;-78
2023/07/05 08:08:55;;;;;;;10.07;9.07;;;;;;;27.99;71.61;64904.16;5004338;28;20206;-79
2023/07/05 08:11:23;;;;;;;10.52;9.52;;;;;;;28.16;69.36;64922.50;4990067;28;20302;-79
2023/07/05 08:13:51;;;;;;;10.45;8.88;;;;;;;28.45;69.10;64955.06;5019507;28;20207;-79
2023/07/05 08:16:19;;;;;;;10.40;9.30;;;;;;;28.51;63.23;64956.13;5007776;28;20610;-80
2023/07/05 08:18:46;;;;;;;8.98;8.25;;;;;;;28.66;62.11;64974.00;5008472;28;20234;-79
2023/07/05 08:21:15;;;;;;;9.65;8.73;;;;;;;28.84;62.17;64992.88;4994270;28;20448;-79
2023/07/05 08:23:44;;;;;;;9.52;8.63;;;;;;;28.95;60.96;65004.97;4987891;28;20528;-79
2023/07/05 08:26:12;;;;;;;9.45;8.55;;;;;;;28.79;59.72;64988.16;4991516;28;20226;-79
2023/07/05 08:28:39;;;;;;;8.93;8.13;;;;;;;28.40;55.85;64947.19;5007915;28;20259;-78
2023/07/05 08:31:07;;;;;;;8.95;8.15;;;;;;;28.34;58.29;64941.41;5007689;28;20293;-78
2023/07/05 08:33:36;;;;;;;8.23;7.53;;;;;;;28.48;59.49;64955.06;5009704;28;20221;-79
2023/07/05 08:36:17;;;;;;;9.32;8.55;;;;;;;28.60;59.33;64968.22;4990444;28;20238;-79
2023/07/05 08:38:48;;;;;;;9.57;8.10;;;;;;;28.73;58.19;64981.34;4988727;28;20258;-78
2023/07/05 08:41:24;;;;;;;10.70;8.45;;;;;;;28.84;59.25;64990.25;4988316;28;20238;-79
2023/07/05 08:43:57;;;;;;;8.77;7.97;;;;;;;29.02;56.53;65009.19;4988415;28;20199;-79
2023/07/05 08:46:27;;;;;;;8.65;7.80;;;;;;;28.98;55.39;65010.75;4988824;28;20263;-79
2023/07/05 08:48:57;;;;;;;8.25;7.60;;;;;;;29.02;56.64;65011.81;4988942;28;20231;-78
2023/07/05 08:51:25;;;;;;;8.95;8.15;;;;;;;29.21;59.23;65029.69;4989301;28;20230;-79
2023/07/05 08:53:57;;;;;;;9.90;8.90;;;;;;;29.38;55.79;65052.81;4985997;28;20443;-80
2023/07/05 08:56:31;;;;;;;9.88;8.55;;;;;;;29.57;59.64;65066.47;4988274;28;20227;-79
2023/07/05 08:59:03;;;;;;;9.10;8.27;;;;;;;29.71;55.26;65084.34;4989043;28;20295;-80
2023/07/05 09:01:35;;;;;;;10.02;9.07;;;;;;;29.93;56.71;65112.72;4988748;28;20234;-79
2023/07/05 09:04:02;;;;;;;9.68;8.52;;;;;;;30.01;54.56;65120.63;4975055;28;20509;-80
2023/07/05 09:06:34;;;;;;;10.10;8.90;;;;;;;29.91;55.47;65102.22;4989064;28;20231;-79
2023/07/05 09:09:19;;;;;;;10.60;8.75;;;;;;;29.23;55.40;65037.03;4984560;28;20235;-80
2023/07/05 09:12:02;;;;;;;10.27;9.35;;;;;;;29.47;54.74;65057.00;4989703;28;20402;-78
2023/07/05 09:14:41;;;;;;;10.02;9.07;;;;;;;29.57;55.61;65069.09;5008174;28;20492;-78
2023/07/05 09:17:19;;;;;;;9.77;8.93;;;;;;;29.59;53.46;65073.81;5006418;28;20412;-78
2023/07/05 09:19:56;;;;;;;9.60;8.75;;;;;;;29.53;53.27;65063.31;5005777;28;20213;-78
2023/07/05 09:22:27;;;;;;;8.85;8.15;;;;;;;29.83;52.71;65099.59;5023385;28;20265;-78
2023/07/05 09:24:56;;;;;;;12.02;9.90;;;;;;;29.98;54.51;65110.09;5027633;28;20210;-79
2023/07/05 09:27:28;;;;;;;12.98;9.63;;;;;;;30.17;52.89;65126.91;5031548;28;20576;-79
2023/07/05 09:30:00;;;;;;;9.07;8.25;;;;;;;30.47;51.58;65166.91;4997352;28;20210;-79
2023/07/05 09:32:32;;;;;;;9.30;8.48;;;;;;;30.57;53.36;65177.41;5010620;28;20230;-78
2023/07/05 09:35:01;;;;;;;9.02;8.32;;;;;;;30.60;52.99;65172.69;5010228;28;20257;-80
2023/07/05 09:37:32;;;;;;;8.75;8.07;;;;;;;30.95;52.39;65219.50;5010800;28;20285;-79
2023/07/05 09:40:15;;;;;;;9.38;8.45;;;;;;;31.18;51.20;65237.91;5011506;28;20221;-78
2023/07/05 09:42:46;;;;;;;8.05;7.45;;;;;;;31.04;50.46;65218.47;5010500;28;20238;-78
2023/07/05 09:45:14;;;;;;;8.93;7.75;;;;;;;31.34;50.00;65254.78;5010620;28;20461;-78
2023/07/05 09:47:41;;;;;;;8.00;7.30;;;;;;;31.23;51.37;65240.53;5009495;28;20221;-78
2023/07/05 09:50:16;;;;;;;7.80;6.60;;;;;;;31.37;51.73;65258.47;5009722;28;20214;-79
2023/07/05 09:52:45;;;;;;;8.68;7.97;;;;;;;31.45;48.88;65269.50;5002860;28;20264;-79
2023/07/05 09:55:16;;;;;;;9.70;7.55;;;;;;;31.35;48.48;65259.00;5015582;28;20234;-78
2023/07/05 09:57:45;;;;;;;8.13;7.28;;;;;;;31.15;48.69;65234.78;4996684;28;20217;-78
2023/07/05 10:00:24;;;;;;;8.25;7.43;;;;;;;31.17;47.87;65237.38;4996615;28;20227;-78
2023/07/05 10:02:53;;;;;;;7.60;7.00;;;;;;;30.97;49.20;65213.19;5028936;28;20307;-79
2023/07/05 10:05:26;;;;;;;9.25;7.88;;;;;;;31.01;49.60;65217.41;5028919;28;20392;-79
2023/07/05 10:07:56;;;;;;;8.57;7.88;;;;;;;30.92;49.23;65208.47;5020585;28;20195;-80
2023/07/05 10:10:28;;;;;;;8.02;7.43;;;;;;;31.12;47.19;65229.50;5012178;28;20210;-80
2023/07/05 10:13:12;;;;;;;11.05;7.25;;;;;;;30.93;47.23;65212.13;5024058;28;20202;-79
2023/07/05 10:15:43;;;;;;;6.95;6.45;;;;;;;31.10;46.24;65232.16;5029539;28;20268;-80
2023/07/05 10:18:26;;;;;;;7.88;7.18;;;;;;;30.99;49.15;65218.47;5029530;28;20202;-80
2023/07/05 10:20:54;;;;;;;7.70;7.00;;;;;;;30.95;48.77;65216.88;5008738;28;20278;-79
2023/07/05 10:23:23;;;;;;;8.45;7.22;;;;;;;30.60;49.31;65175.31;5027617;28;20238;-79
2023/07/05 10:25:53;;;;;;;7.60;6.90;;;;;;;30.48;52.15;65164.78;5019818;28;20232;-79
2023/07/05 10:28:26;;;;;;;7.32;6.63;;;;;;;30.21;52.65;65136.38;5009919;28;20250;-78
2023/07/05 10:30:55;;;;;;;8.13;7.43;;;;;;;30.41;51.78;65160.59;5025015;28;20253;-80
2023/07/05 10:33:24;;;;;;;8.95;8.20;;;;;;;30.58;50.52;65177.94;5028957;28;20333;-79
2023/07/05 10:35:56;;;;;;;7.53;6.88;;;;;;;30.26;49.89;65142.19;5027820;28;20226;-79
2023/07/05 10:38:29;;;;;;;7.55;6.80;;;;;;;30.27;51.28;65147.97;5027440;28;20308;-78
2023/07/05 10:41:01;;;;;;;8.38;7.35;;;;;;;30.22;51.18;65134.78;5026189;28;20297;-79
2023/07/05 10:43:31;;;;;;;8.38;7.47;;;;;;;30.29;51.48;65145.34;5010255;28;20226;-79
2023/07/05 10:45:58;;;;;;;8.43;7.72;;;;;;;30.51;50.43;65165.31;5015972;28;20230;-79
2023/07/05 10:48:32;;;;;;;10.77;7.13;;;;;;;30.72;49.43;65195.28;5030603;28;20499;-79
2023/07/05 10:50:59;;;;;;;9.25;8.38;;;;;;;30.55;50.59;65172.16;5030216;28;20241;-80
2023/07/05 10:53:28;;;;;;;7.75;7.15;;;;;;;30.35;50.14;65143.78;5026908;28;20213;-80
2023/07/05 10:56:03;;;;;;;8.07;7.45;;;;;;;30.39;50.55;65152.72;4996442;28;20231;-78
2023/07/05 10:58:45;;;;;;;9.18;7.55;;;;;;;30.26;51.32;65144.81;5024073;28;20216;-79
2023/07/05 11:01:19;;;;;;;8.93;8.13;;;;;;;30.23;51.74;65139.03;5009102;28;20234;-79
2023/07/05 11:03:52;;;;;;;7.57;6.90;;;;;;;29.93;52.86;65104.31;5022635;28;20396;-79
2023/07/05 11:06:21;;;;;;;8.35;7.65;;;;;;;29.65;55.89;65080.63;5008587;28;20551;-79
2023/07/05 11:08:48;;;;;;;7.50;6.85;;;;;;;29.04;59.46;65013.91;5007702;28;20233;-78
2023/07/05 11:11:20;;;;;;;8.45;7.60;;;;;;;28.94;63.77;65011.78;5014293;28;20226;-78
2023/07/05 11:13:49;;;;;;;9.50;7.63;;;;;;;28.95;68.55;65004.44;5022720;28;20451;-78
2023/07/05 11:16:19;;;;;;;6.25;5.45;;;;;;;27.93;59.39;64901.00;5008395;28;20226;-77
2023/07/05 11:18:47;;;;;;;4.80;4.50;;;;;;;26.93;55.94;64796.53;5015538;28;20202;-80
2023/07/05 11:21:34;;;;;;;5.03;4.50;;;;;;;26.20;58.23;64723.09;5026854;28;20233;-78
2023/07/05 11:24:01;;;;;;;5.63;4.80;;;;;;;25.99;61.52;64698.44;5017326;28;20565;-79
2023/07/05 11:26:47;;;;;;;5.35;4.88;;;;;;;25.56;61.67;64650.25;5003584;28;20228;-78
2023/07/05 11:29:51;;;;;;;4.97;4.50;;;;;;;25.02;61.79;64597.31;5014263;28;20250;-79
2023/07/05 11:32:19;;;;;;;5.50;4.95;;;;;;;24.71;64.87;64561.72;5007218;28;20230;-79